Terminal Aerodrome Forecast
Issued by NWS Mobile, AL

Home | Current Version | Previous Version | Text Only | Print | Product List | Glossary On
Versions: 1 2 3 4 5 6 7 8 9 10 11 12 13 14 15
000
FTUS44 KMOB 271158
TAFPNS
TAF
KPNS 271158Z 2712/2812 05006KT P6SM SKC
     FM271500 15011KT P6SM OVC050
     FM272100 16013G20KT 4SM TSRA BKN030CB
     FM280300 15006KT 2SM BR BKN007
     FM280400 14006KT 1/2SM FG OVC004=

USA.gov is the U.S. government's official web portal to all federal, state and local government web resources and services.